sensor_id;sensor_type;location;lat;lon;timestamp;temperature;humidity
34877;DHT22;21086;44.780;17.194;2022-12-18T00:02:27;6.20;99.90
34877;DHT22;21086;44.780;17.194;2022-12-18T02:01:57;5.80;99.90
34877;DHT22;21086;44.780;17.194;2022-12-18T02:04:27;5.70;99.90
34877;DHT22;21086;44.780;17.194;2022-12-18T02:07:20;5.80;99.90
34877;DHT22;21086;44.780;17.194;2022-12-18T02:09:57;5.80;99.90
34877;DHT22;21086;44.780;17.194;2022-12-18T02:12:30;5.80;99.90
34877;DHT22;21086;44.780;17.194;2022-12-18T02:17:52;5.80;99.90
34877;DHT22;21086;44.780;17.194;2022-12-18T02:20:28;5.80;99.90
34877;DHT22;21086;44.780;17.194;2022-12-18T02:26:02;5.80;99.90
34877;DHT22;21086;44.780;17.194;2022-12-18T02:28:36;5.80;99.90
34877;DHT22;21086;44.780;17.194;2022-12-18T02:31:07;5.70;99.90
34877;DHT22;21086;44.780;17.194;2022-12-18T02:33:36;5.70;99.90
34877;DHT22;21086;44.780;17.194;2022-12-18T02:36:05;5.80;99.90
34877;DHT22;21086;44.780;17.194;2022-12-18T02:38:33;5.70;99.90
34877;DHT22;21086;44.780;17.194;2022-12-18T02:41:02;5.70;99.90
34877;DHT22;21086;44.780;17.194;2022-12-18T02:43:30;5.80;99.90
34877;DHT22;21086;44.780;17.194;2022-12-18T02:45:59;6.00;99.90
34877;DHT22;21086;44.780;17.194;2022-12-18T02:48:35;5.90;99.90
34877;DHT22;21086;44.780;17.194;2022-12-18T02:51:26;5.80;99.90
34877;DHT22;21086;44.780;17.194;2022-12-18T02:54:10;5.80;99.90
34877;DHT22;21086;44.780;17.194;2022-12-18T02:56:46;5.80;99.90
34877;DHT22;21086;44.780;17.194;2022-12-18T02:59:21;5.70;99.90
34877;DHT22;21086;44.780;17.194;2022-12-18T03:02:02;5.60;99.90
34877;DHT22;21086;44.780;17.194;2022-12-18T03:07:02;5.40;99.90
34877;DHT22;21086;44.780;17.194;2022-12-18T03:09:36;6.80;99.90
34877;DHT22;21086;44.780;17.194;2022-12-18T03:15:10;5.00;99.90
34877;DHT22;21086;44.780;17.194;2022-12-18T03:17:52;6.60;99.90
34877;DHT22;21086;44.780;17.194;2022-12-18T03:20:24;4.80;99.90
34877;DHT22;21086;44.780;17.194;2022-12-18T03:22:57;4.70;99.90
34877;DHT22;21086;44.780;17.194;2022-12-18T03:25:28;4.70;99.90
34877;DHT22;21086;44.780;17.194;2022-12-18T03:27:58;4.60;99.90
34877;DHT22;21086;44.780;17.194;2022-12-18T03:30:28;4.50;99.90
34877;DHT22;21086;44.780;17.194;2022-12-18T03:33:12;4.40;99.90
34877;DHT22;21086;44.780;17.194;2022-12-18T03:35:41;4.30;99.90
34877;DHT22;21086;44.780;17.194;2022-12-18T03:38:09;4.40;99.90
34877;DHT22;21086;44.780;17.194;2022-12-18T03:46:30;4.10;99.90
34877;DHT22;21086;44.780;17.194;2022-12-18T03:49:06;4.00;99.90
34877;DHT22;21086;44.780;17.194;2022-12-18T03:51:42;4.10;99.90
34877;DHT22;21086;44.780;17.194;2022-12-18T03:54:15;4.00;99.90
34877;DHT22;21086;44.780;17.194;2022-12-18T03:56:46;4.10;99.90
34877;DHT22;21086;44.780;17.194;2022-12-18T03:59:16;3.90;99.90
34877;DHT22;21086;44.780;17.194;2022-12-18T04:01:49;4.00;99.90
34877;DHT22;21086;44.780;17.194;2022-12-18T04:04:18;4.00;99.90
34877;DHT22;21086;44.780;17.194;2022-12-18T04:06:47;3.90;99.90
34877;DHT22;21086;44.780;17.194;2022-12-18T04:09:16;3.90;99.90
34877;DHT22;21086;44.780;17.194;2022-12-18T04:11:43;4.00;99.90
34877;DHT22;21086;44.780;17.194;2022-12-18T04:14:11;3.90;99.90
34877;DHT22;21086;44.780;17.194;2022-12-18T04:16:44;3.90;99.90
34877;DHT22;21086;44.780;17.194;2022-12-18T04:19:10;3.90;99.90
34877;DHT22;21086;44.780;17.194;2022-12-18T04:21:37;3.90;99.90
34877;DHT22;21086;44.780;17.194;2022-12-18T04:24:04;4.00;99.90
34877;DHT22;21086;44.780;17.194;2022-12-18T04:26:32;3.90;99.90
34877;DHT22;21086;44.780;17.194;2022-12-18T04:28:59;3.90;99.90
34877;DHT22;21086;44.780;17.194;2022-12-18T04:31:25;3.80;99.90
34877;DHT22;21086;44.780;17.194;2022-12-18T04:33:53;3.70;99.90
34877;DHT22;21086;44.780;17.194;2022-12-18T04:36:20;3.80;99.90
34877;DHT22;21086;44.780;17.194;2022-12-18T04:38:46;3.70;99.90
34877;DHT22;21086;44.780;17.194;2022-12-18T04:41:14;3.60;99.90
34877;DHT22;21086;44.780;17.194;2022-12-18T04:43:41;3.60;99.90
34877;DHT22;21086;44.780;17.194;2022-12-18T04:46:08;3.70;99.90
34877;DHT22;21086;44.780;17.194;2022-12-18T04:48:36;3.60;99.90
34877;DHT22;21086;44.780;17.194;2022-12-18T04:51:04;3.70;99.90
34877;DHT22;21086;44.780;17.194;2022-12-18T04:53:32;3.70;99.90
34877;DHT22;21086;44.780;17.194;2022-12-18T04:56:14;4.00;99.90
34877;DHT22;21086;44.780;17.194;2022-12-18T04:58:43;4.00;99.90
34877;DHT22;21086;44.780;17.194;2022-12-18T05:01:12;4.10;99.90
34877;DHT22;21086;44.780;17.194;2022-12-18T05:03:39;4.00;99.90
34877;DHT22;21086;44.780;17.194;2022-12-18T05:06:07;3.90;99.90
34877;DHT22;21086;44.780;17.194;2022-12-18T05:08:34;3.60;99.90
34877;DHT22;21086;44.780;17.194;2022-12-18T05:11:07;4.10;99.90
34877;DHT22;21086;44.780;17.194;2022-12-18T05:13:35;4.10;99.90
34877;DHT22;21086;44.780;17.194;2022-12-18T05:16:03;4.10;99.90
34877;DHT22;21086;44.780;17.194;2022-12-18T05:18:31;4.20;99.90
34877;DHT22;21086;44.780;17.194;2022-12-18T05:20:58;4.30;99.90
34877;DHT22;21086;44.780;17.194;2022-12-18T05:23:25;4.50;99.90
34877;DHT22;21086;44.780;17.194;2022-12-18T05:25:55;4.40;99.90
34877;DHT22;21086;44.780;17.194;2022-12-18T05:28:23;4.50;99.90
34877;DHT22;21086;44.780;17.194;2022-12-18T05:30:53;4.50;99.90
34877;DHT22;21086;44.780;17.194;2022-12-18T05:33:22;4.60;99.90
34877;DHT22;21086;44.780;17.194;2022-12-18T05:35:57;4.50;99.90
34877;DHT22;21086;44.780;17.194;2022-12-18T05:38:26;4.40;99.90
34877;DHT22;21086;44.780;17.194;2022-12-18T05:40:54;4.60;99.90
34877;DHT22;21086;44.780;17.194;2022-12-18T05:43:22;4.40;99.90
34877;DHT22;21086;44.780;17.194;2022-12-18T05:45:50;4.40;99.90
34877;DHT22;21086;44.780;17.194;2022-12-18T05:48:18;4.40;99.90
34877;DHT22;21086;44.780;17.194;2022-12-18T05:50:45;4.40;99.90
34877;DHT22;21086;44.780;17.194;2022-12-18T05:53:15;4.30;99.90
34877;DHT22;21086;44.780;17.194;2022-12-18T05:55:43;4.20;99.90
34877;DHT22;21086;44.780;17.194;2022-12-18T05:58:12;4.20;99.90
34877;DHT22;21086;44.780;17.194;2022-12-18T06:00:41;4.10;99.90
34877;DHT22;21086;44.780;17.194;2022-12-18T06:03:09;4.00;99.90
34877;DHT22;21086;44.780;17.194;2022-12-18T06:05:38;3.90;99.90
34877;DHT22;21086;44.780;17.194;2022-12-18T06:08:05;4.00;99.90
34877;DHT22;21086;44.780;17.194;2022-12-18T06:10:33;3.90;99.90
34877;DHT22;21086;44.780;17.194;2022-12-18T06:13:00;4.00;99.90
34877;DHT22;21086;44.780;17.194;2022-12-18T06:15:27;3.90;99.90
34877;DHT22;21086;44.780;17.194;2022-12-18T06:17:54;4.10;99.90
34877;DHT22;21086;44.780;17.194;2022-12-18T06:20:21;4.20;99.90
34877;DHT22;21086;44.780;17.194;2022-12-18T06:22:48;4.20;99.90
34877;DHT22;21086;44.780;17.194;2022-12-18T06:25:15;4.20;99.90
34877;DHT22;21086;44.780;17.194;2022-12-18T06:27:42;4.20;99.90
34877;DHT22;21086;44.780;17.194;2022-12-18T06:30:10;4.30;99.90
34877;DHT22;21086;44.780;17.194;2022-12-18T06:32:38;4.30;99.90
34877;DHT22;21086;44.780;17.194;2022-12-18T06:35:05;4.30;99.90
34877;DHT22;21086;44.780;17.194;2022-12-18T06:37:32;4.30;99.90
34877;DHT22;21086;44.780;17.194;2022-12-18T06:39:59;4.30;99.90
34877;DHT22;21086;44.780;17.194;2022-12-18T06:42:28;4.20;99.90
34877;DHT22;21086;44.780;17.194;2022-12-18T06:44:55;4.20;99.90
34877;DHT22;21086;44.780;17.194;2022-12-18T06:47:22;4.20;99.90
34877;DHT22;21086;44.780;17.194;2022-12-18T06:49:49;4.30;99.90
34877;DHT22;21086;44.780;17.194;2022-12-18T06:52:16;4.30;99.90
34877;DHT22;21086;44.780;17.194;2022-12-18T06:54:44;4.80;99.90
34877;DHT22;21086;44.780;17.194;2022-12-18T06:57:11;4.50;99.90
34877;DHT22;21086;44.780;17.194;2022-12-18T06:59:37;4.50;99.90
34877;DHT22;21086;44.780;17.194;2022-12-18T07:02:04;4.40;99.90
34877;DHT22;21086;44.780;17.194;2022-12-18T07:04:32;4.60;99.90
34877;DHT22;21086;44.780;17.194;2022-12-18T07:06:59;4.40;99.90
34877;DHT22;21086;44.780;17.194;2022-12-18T07:09:25;4.50;99.90
34877;DHT22;21086;44.780;17.194;2022-12-18T07:11:54;4.60;99.90
34877;DHT22;21086;44.780;17.194;2022-12-18T07:14:22;4.70;99.90
34877;DHT22;21086;44.780;17.194;2022-12-18T07:16:48;4.60;99.90
34877;DHT22;21086;44.780;17.194;2022-12-18T07:19:15;4.80;99.90
34877;DHT22;21086;44.780;17.194;2022-12-18T07:21:42;4.90;99.90
34877;DHT22;21086;44.780;17.194;2022-12-18T07:24:09;4.90;99.90
34877;DHT22;21086;44.780;17.194;2022-12-18T07:26:36;5.00;99.90
34877;DHT22;21086;44.780;17.194;2022-12-18T07:29:03;5.10;99.90
34877;DHT22;21086;44.780;17.194;2022-12-18T07:31:30;5.10;99.90
34877;DHT22;21086;44.780;17.194;2022-12-18T07:33:57;5.20;99.90
34877;DHT22;21086;44.780;17.194;2022-12-18T07:36:24;5.20;99.90
34877;DHT22;21086;44.780;17.194;2022-12-18T07:38:52;5.30;99.90
34877;DHT22;21086;44.780;17.194;2022-12-18T07:41:20;5.30;99.90
34877;DHT22;21086;44.780;17.194;2022-12-18T07:43:47;7.10;99.90
34877;DHT22;21086;44.780;17.194;2022-12-18T07:46:15;5.60;99.90
34877;DHT22;21086;44.780;17.194;2022-12-18T07:48:43;5.50;99.90
34877;DHT22;21086;44.780;17.194;2022-12-18T07:51:15;5.80;99.90
34877;DHT22;21086;44.780;17.194;2022-12-18T07:53:42;6.00;99.90
34877;DHT22;21086;44.780;17.194;2022-12-18T07:56:11;5.90;99.90
34877;DHT22;21086;44.780;17.194;2022-12-18T07:58:56;5.90;99.90
34877;DHT22;21086;44.780;17.194;2022-12-18T08:01:23;5.90;99.90
34877;DHT22;21086;44.780;17.194;2022-12-18T08:03:51;6.00;99.90
34877;DHT22;21086;44.780;17.194;2022-12-18T08:06:18;6.10;99.90
34877;DHT22;21086;44.780;17.194;2022-12-18T08:08:54;5.90;99.90
34877;DHT22;21086;44.780;17.194;2022-12-18T08:11:22;5.90;99.90
34877;DHT22;21086;44.780;17.194;2022-12-18T08:13:49;5.90;99.90
34877;DHT22;21086;44.780;17.194;2022-12-18T08:16:16;6.10;99.90
34877;DHT22;21086;44.780;17.194;2022-12-18T08:18:43;6.30;99.90
34877;DHT22;21086;44.780;17.194;2022-12-18T08:21:13;6.40;99.90
34877;DHT22;21086;44.780;17.194;2022-12-18T08:23:40;6.70;99.90
34877;DHT22;21086;44.780;17.194;2022-12-18T08:26:09;6.80;99.90
34877;DHT22;21086;44.780;17.194;2022-12-18T08:28:37;6.80;99.90
34877;DHT22;21086;44.780;17.194;2022-12-18T08:31:04;6.90;99.90
34877;DHT22;21086;44.780;17.194;2022-12-18T08:33:32;7.00;99.90
34877;DHT22;21086;44.780;17.194;2022-12-18T08:36:00;6.70;99.90
34877;DHT22;21086;44.780;17.194;2022-12-18T08:38:27;6.60;99.90
34877;DHT22;21086;44.780;17.194;2022-12-18T08:41:02;6.80;99.90
34877;DHT22;21086;44.780;17.194;2022-12-18T08:43:29;6.60;99.90
34877;DHT22;21086;44.780;17.194;2022-12-18T08:46:15;6.70;99.90
34877;DHT22;21086;44.780;17.194;2022-12-18T08:48:42;6.60;99.90
34877;DHT22;21086;44.780;17.194;2022-12-18T08:51:09;6.50;99.90
34877;DHT22;21086;44.780;17.194;2022-12-18T08:53:39;6.60;99.90
34877;DHT22;21086;44.780;17.194;2022-12-18T08:56:07;6.60;99.90
34877;DHT22;21086;44.780;17.194;2022-12-18T08:58:34;6.90;99.90
34877;DHT22;21086;44.780;17.194;2022-12-18T09:01:07;7.10;99.90
34877;DHT22;21086;44.780;17.194;2022-12-18T09:03:36;7.50;99.90
34877;DHT22;21086;44.780;17.194;2022-12-18T09:06:05;7.90;99.90
34877;DHT22;21086;44.780;17.194;2022-12-18T09:08:35;8.20;99.90
34877;DHT22;21086;44.780;17.194;2022-12-18T09:11:04;8.50;99.90
34877;DHT22;21086;44.780;17.194;2022-12-18T09:13:31;8.40;99.90
34877;DHT22;21086;44.780;17.194;2022-12-18T09:15:58;8.60;99.90
34877;DHT22;21086;44.780;17.194;2022-12-18T09:18:25;9.00;99.90
34877;DHT22;21086;44.780;17.194;2022-12-18T09:20:52;9.40;99.90
34877;DHT22;21086;44.780;17.194;2022-12-18T09:23:20;9.60;99.90
34877;DHT22;21086;44.780;17.194;2022-12-18T09:25:48;9.70;99.90
34877;DHT22;21086;44.780;17.194;2022-12-18T09:28:17;9.60;99.90
34877;DHT22;21086;44.780;17.194;2022-12-18T09:30:49;9.70;99.90
34877;DHT22;21086;44.780;17.194;2022-12-18T09:33:16;9.90;99.90
34877;DHT22;21086;44.780;17.194;2022-12-18T09:35:45;10.00;99.90
34877;DHT22;21086;44.780;17.194;2022-12-18T09:38:14;10.30;99.90
34877;DHT22;21086;44.780;17.194;2022-12-18T09:40:44;10.70;99.90
34877;DHT22;21086;44.780;17.194;2022-12-18T09:43:24;11.00;99.90
34877;DHT22;21086;44.780;17.194;2022-12-18T09:45:58;11.10;99.90
34877;DHT22;21086;44.780;17.194;2022-12-18T09:48:42;11.50;99.90
34877;DHT22;21086;44.780;17.194;2022-12-18T09:51:18;11.90;99.90
34877;DHT22;21086;44.780;17.194;2022-12-18T09:53:52;12.40;99.90
34877;DHT22;21086;44.780;17.194;2022-12-18T09:56:21;12.90;99.90
34877;DHT22;21086;44.780;17.194;2022-12-18T09:58:59;14.30;99.90
34877;DHT22;21086;44.780;17.194;2022-12-18T10:01:29;13.60;99.90
34877;DHT22;21086;44.780;17.194;2022-12-18T10:04:10;13.90;99.90
34877;DHT22;21086;44.780;17.194;2022-12-18T10:07:03;14.50;99.90
34877;DHT22;21086;44.780;17.194;2022-12-18T10:09:58;14.90;99.90
34877;DHT22;21086;44.780;17.194;2022-12-18T10:17:58;15.80;99.90
34877;DHT22;21086;44.780;17.194;2022-12-18T10:26:24;16.60;99.90
34877;DHT22;21086;44.780;17.194;2022-12-18T10:28:53;16.60;99.90
34877;DHT22;21086;44.780;17.194;2022-12-18T10:31:23;16.80;99.90
34877;DHT22;21086;44.780;17.194;2022-12-18T10:33:53;16.60;99.90
34877;DHT22;21086;44.780;17.194;2022-12-18T10:36:23;16.80;99.90
34877;DHT22;21086;44.780;17.194;2022-12-18T10:38:51;17.00;99.90
34877;DHT22;21086;44.780;17.194;2022-12-18T10:43:47;18.10;99.90
34877;DHT22;21086;44.780;17.194;2022-12-18T10:46:17;18.60;99.90
34877;DHT22;21086;44.780;17.194;2022-12-18T10:48:56;19.00;99.90
34877;DHT22;21086;44.780;17.194;2022-12-18T10:51:30;19.70;99.90
34877;DHT22;21086;44.780;17.194;2022-12-18T10:54:22;19.90;99.90
34877;DHT22;21086;44.780;17.194;2022-12-18T10:56:48;20.00;99.90
34877;DHT22;21086;44.780;17.194;2022-12-18T10:59:16;18.80;99.90
34877;DHT22;21086;44.780;17.194;2022-12-18T11:01:52;18.60;99.90
34877;DHT22;21086;44.780;17.194;2022-12-18T11:04:24;18.40;99.90
34877;DHT22;21086;44.780;17.194;2022-12-18T11:07:04;18.10;99.90
34877;DHT22;21086;44.780;17.194;2022-12-18T11:09:36;17.50;99.90
34877;DHT22;21086;44.780;17.194;2022-12-18T11:12:24;16.50;99.90
34877;DHT22;21086;44.780;17.194;2022-12-18T11:14:52;15.90;99.90
34877;DHT22;21086;44.780;17.194;2022-12-18T11:20:07;16.90;99.90
34877;DHT22;21086;44.780;17.194;2022-12-18T11:22:55;17.20;99.90
34877;DHT22;21086;44.780;17.194;2022-12-18T11:25:22;18.30;99.90
34877;DHT22;21086;44.780;17.194;2022-12-18T11:28:01;18.60;99.90
34877;DHT22;21086;44.780;17.194;2022-12-18T11:30:35;19.10;99.90
34877;DHT22;21086;44.780;17.194;2022-12-18T11:33:04;19.00;99.90
34877;DHT22;21086;44.780;17.194;2022-12-18T11:35:39;18.80;99.90
34877;DHT22;21086;44.780;17.194;2022-12-18T11:38:22;18.80;99.90
34877;DHT22;21086;44.780;17.194;2022-12-18T11:41:00;19.80;99.90
34877;DHT22;21086;44.780;17.194;2022-12-18T11:43:33;20.70;99.90
34877;DHT22;21086;44.780;17.194;2022-12-18T11:46:06;21.40;99.90
34877;DHT22;21086;44.780;17.194;2022-12-18T11:48:47;20.90;99.90
34877;DHT22;21086;44.780;17.194;2022-12-18T11:51:26;20.60;99.90
34877;DHT22;21086;44.780;17.194;2022-12-18T11:53:55;21.40;99.90
34877;DHT22;21086;44.780;17.194;2022-12-18T11:56:26;22.30;99.90
34877;DHT22;21086;44.780;17.194;2022-12-18T12:09:34;21.90;99.90
34877;DHT22;21086;44.780;17.194;2022-12-18T12:14:46;22.60;99.90
34877;DHT22;21086;44.780;17.194;2022-12-18T12:17:21;22.90;99.90
34877;DHT22;21086;44.780;17.194;2022-12-18T12:23:12;23.80;99.90
34877;DHT22;21086;44.780;17.194;2022-12-18T12:25:52;24.10;99.90
34877;DHT22;21086;44.780;17.194;2022-12-18T12:38:54;24.80;99.90
34877;DHT22;21086;44.780;17.194;2022-12-18T12:41:26;24.60;99.90
34877;DHT22;21086;44.780;17.194;2022-12-18T12:44:39;24.50;99.90
34877;DHT22;21086;44.780;17.194;2022-12-18T12:47:26;23.50;99.90
34877;DHT22;21086;44.780;17.194;2022-12-18T12:49:54;22.60;99.90
34877;DHT22;21086;44.780;17.194;2022-12-18T12:52:33;22.70;99.90
34877;DHT22;21086;44.780;17.194;2022-12-18T12:55:04;23.10;99.90
34877;DHT22;21086;44.780;17.194;2022-12-18T12:57:41;23.40;99.90
34877;DHT22;21086;44.780;17.194;2022-12-18T13:00:16;23.60;99.90
34877;DHT22;21086;44.780;17.194;2022-12-18T13:02:52;23.70;99.90
34877;DHT22;21086;44.780;17.194;2022-12-18T13:05:43;23.80;99.90
34877;DHT22;21086;44.780;17.194;2022-12-18T13:08:29;23.60;99.90
34877;DHT22;21086;44.780;17.194;2022-12-18T13:11:00;23.50;99.90
34877;DHT22;21086;44.780;17.194;2022-12-18T13:13:55;23.40;99.90
34877;DHT22;21086;44.780;17.194;2022-12-18T13:16:24;23.60;99.90
34877;DHT22;21086;44.780;17.194;2022-12-18T13:18:53;23.80;99.90
34877;DHT22;21086;44.780;17.194;2022-12-18T13:21:29;23.40;99.90
34877;DHT22;21086;44.780;17.194;2022-12-18T13:24:25;23.30;99.90
34877;DHT22;21086;44.780;17.194;2022-12-18T13:26:53;23.00;99.90
34877;DHT22;21086;44.780;17.194;2022-12-18T13:29:44;23.20;99.90
34877;DHT22;21086;44.780;17.194;2022-12-18T13:32:23;23.40;99.90
34877;DHT22;21086;44.780;17.194;2022-12-18T13:37:51;23.20;99.90
34877;DHT22;21086;44.780;17.194;2022-12-18T13:51:47;22.70;99.90
34877;DHT22;21086;44.780;17.194;2022-12-18T13:57:01;22.10;99.90
34877;DHT22;21086;44.780;17.194;2022-12-18T13:59:39;21.80;99.90
34877;DHT22;21086;44.780;17.194;2022-12-18T14:02:15;22.20;99.90
34877;DHT22;21086;44.780;17.194;2022-12-18T14:04:45;22.20;99.90
34877;DHT22;21086;44.780;17.194;2022-12-18T14:07:28;21.70;99.90
34877;DHT22;21086;44.780;17.194;2022-12-18T14:10:01;21.00;99.90
34877;DHT22;21086;44.780;17.194;2022-12-18T14:12:50;20.50;99.90
34877;DHT22;21086;44.780;17.194;2022-12-18T14:17:56;20.00;99.90
34877;DHT22;21086;44.780;17.194;2022-12-18T14:20:29;19.90;99.90
34877;DHT22;21086;44.780;17.194;2022-12-18T14:22:58;19.80;99.90
34877;DHT22;21086;44.780;17.194;2022-12-18T14:25:27;19.50;99.90
34877;DHT22;21086;44.780;17.194;2022-12-18T14:30:42;18.60;99.90
34877;DHT22;21086;44.780;17.194;2022-12-18T14:33:18;18.20;99.90
34877;DHT22;21086;44.780;17.194;2022-12-18T14:36:03;17.60;99.90
34877;DHT22;21086;44.780;17.194;2022-12-18T14:38:31;17.20;99.90
34877;DHT22;21086;44.780;17.194;2022-12-18T14:41:10;16.70;99.90
34877;DHT22;21086;44.780;17.194;2022-12-18T14:43:40;16.30;99.90
34877;DHT22;21086;44.780;17.194;2022-12-18T14:49:21;15.00;99.90
34877;DHT22;21086;44.780;17.194;2022-12-18T14:51:55;14.00;99.90
34877;DHT22;21086;44.780;17.194;2022-12-18T14:54:24;13.10;99.90
34877;DHT22;21086;44.780;17.194;2022-12-18T14:57:21;12.20;99.90
34877;DHT22;21086;44.780;17.194;2022-12-18T14:59:49;11.40;99.90
34877;DHT22;21086;44.780;17.194;2022-12-18T15:02:27;10.70;99.90
34877;DHT22;21086;44.780;17.194;2022-12-18T15:05:14;10.10;99.90
34877;DHT22;21086;44.780;17.194;2022-12-18T15:07:53;9.60;99.90
34877;DHT22;21086;44.780;17.194;2022-12-18T15:15:48;8.80;99.90
34877;DHT22;21086;44.780;17.194;2022-12-18T15:18:18;8.40;99.90
34877;DHT22;21086;44.780;17.194;2022-12-18T15:20:55;8.30;99.90
34877;DHT22;21086;44.780;17.194;2022-12-18T15:23:23;8.10;99.90
34877;DHT22;21086;44.780;17.194;2022-12-18T15:26:00;7.90;99.90
34877;DHT22;21086;44.780;17.194;2022-12-18T15:33:37;7.40;99.90
34877;DHT22;21086;44.780;17.194;2022-12-18T15:36:09;7.40;99.90
34877;DHT22;21086;44.780;17.194;2022-12-18T15:38:36;7.20;99.90
34877;DHT22;21086;44.780;17.194;2022-12-18T15:41:11;7.10;99.90
34877;DHT22;21086;44.780;17.194;2022-12-18T15:43:40;7.10;99.90
34877;DHT22;21086;44.780;17.194;2022-12-18T15:46:24;7.10;99.90
34877;DHT22;21086;44.780;17.194;2022-12-18T15:48:53;7.10;99.90
34877;DHT22;21086;44.780;17.194;2022-12-18T15:51:31;7.00;99.90
34877;DHT22;21086;44.780;17.194;2022-12-18T15:54:01;6.70;99.90
34877;DHT22;21086;44.780;17.194;2022-12-18T15:56:28;6.60;99.90
34877;DHT22;21086;44.780;17.194;2022-12-18T15:59:19;6.60;99.90
34877;DHT22;21086;44.780;17.194;2022-12-18T16:01:48;6.70;99.90
34877;DHT22;21086;44.780;17.194;2022-12-18T16:04:18;6.50;99.90
34877;DHT22;21086;44.780;17.194;2022-12-18T16:06:50;6.50;99.90
34877;DHT22;21086;44.780;17.194;2022-12-18T16:09:38;6.40;99.90
34877;DHT22;21086;44.780;17.194;2022-12-18T16:12:06;6.40;99.90
34877;DHT22;21086;44.780;17.194;2022-12-18T16:14:38;6.20;99.90
34877;DHT22;21086;44.780;17.194;2022-12-18T16:17:09;7.00;99.90
34877;DHT22;21086;44.780;17.194;2022-12-18T16:19:37;5.90;99.90
34877;DHT22;21086;44.780;17.194;2022-12-18T16:22:04;6.50;99.90
34877;DHT22;21086;44.780;17.194;2022-12-18T16:24:33;5.50;99.90
34877;DHT22;21086;44.780;17.194;2022-12-18T16:27:02;5.40;99.90
34877;DHT22;21086;44.780;17.194;2022-12-18T16:29:29;5.40;99.90
34877;DHT22;21086;44.780;17.194;2022-12-18T16:31:58;5.30;99.90
34877;DHT22;21086;44.780;17.194;2022-12-18T16:37:03;5.30;99.90
34877;DHT22;21086;44.780;17.194;2022-12-18T16:39:35;5.30;99.90
34877;DHT22;21086;44.780;17.194;2022-12-18T16:42:05;5.30;99.90
34877;DHT22;21086;44.780;17.194;2022-12-18T16:44:35;5.20;99.90
34877;DHT22;21086;44.780;17.194;2022-12-18T16:47:03;5.20;99.90
34877;DHT22;21086;44.780;17.194;2022-12-18T16:49:32;5.20;99.90
34877;DHT22;21086;44.780;17.194;2022-12-18T16:52:00;5.30;99.90
34877;DHT22;21086;44.780;17.194;2022-12-18T16:54:28;5.30;99.90
34877;DHT22;21086;44.780;17.194;2022-12-18T16:56:56;5.30;99.90
34877;DHT22;21086;44.780;17.194;2022-12-18T16:59:23;5.20;99.90
34877;DHT22;21086;44.780;17.194;2022-12-18T17:01:52;5.10;99.90
34877;DHT22;21086;44.780;17.194;2022-12-18T17:04:21;5.10;99.90
34877;DHT22;21086;44.780;17.194;2022-12-18T17:06:48;5.80;99.90
34877;DHT22;21086;44.780;17.194;2022-12-18T17:09:18;5.10;99.90
34877;DHT22;21086;44.780;17.194;2022-12-18T17:11:52;5.20;99.90
34877;DHT22;21086;44.780;17.194;2022-12-18T17:14:21;5.10;99.90
34877;DHT22;21086;44.780;17.194;2022-12-18T17:16:51;5.10;99.90
34877;DHT22;21086;44.780;17.194;2022-12-18T17:19:38;5.00;99.90
34877;DHT22;21086;44.780;17.194;2022-12-18T17:22:05;5.00;99.90
34877;DHT22;21086;44.780;17.194;2022-12-18T17:24:33;4.90;99.90
34877;DHT22;21086;44.780;17.194;2022-12-18T17:27:03;5.80;99.90
34877;DHT22;21086;44.780;17.194;2022-12-18T17:29:30;4.90;99.90
34877;DHT22;21086;44.780;17.194;2022-12-18T17:31:58;4.80;99.90
34877;DHT22;21086;44.780;17.194;2022-12-18T17:34:26;5.00;99.90
34877;DHT22;21086;44.780;17.194;2022-12-18T17:36:53;4.70;99.90
34877;DHT22;21086;44.780;17.194;2022-12-18T17:39:21;4.70;99.90
34877;DHT22;21086;44.780;17.194;2022-12-18T17:41:48;4.60;99.90
34877;DHT22;21086;44.780;17.194;2022-12-18T17:44:16;4.60;99.90
34877;DHT22;21086;44.780;17.194;2022-12-18T17:46:44;4.70;99.90
34877;DHT22;21086;44.780;17.194;2022-12-18T17:49:12;4.60;99.90
34877;DHT22;21086;44.780;17.194;2022-12-18T17:51:40;4.70;99.90
34877;DHT22;21086;44.780;17.194;2022-12-18T17:54:09;4.60;99.90
34877;DHT22;21086;44.780;17.194;2022-12-18T17:56:37;4.70;99.90
34877;DHT22;21086;44.780;17.194;2022-12-18T17:59:05;4.70;99.90
34877;DHT22;21086;44.780;17.194;2022-12-18T18:01:33;4.60;99.90
34877;DHT22;21086;44.780;17.194;2022-12-18T18:04:06;4.60;99.90
34877;DHT22;21086;44.780;17.194;2022-12-18T18:06:34;4.60;99.90
34877;DHT22;21086;44.780;17.194;2022-12-18T18:09:06;4.70;99.90
34877;DHT22;21086;44.780;17.194;2022-12-18T18:11:45;4.60;99.90
34877;DHT22;21086;44.780;17.194;2022-12-18T18:14:31;4.50;99.90
34877;DHT22;21086;44.780;17.194;2022-12-18T18:16:59;4.50;99.90
34877;DHT22;21086;44.780;17.194;2022-12-18T18:19:33;4.20;99.90
34877;DHT22;21086;44.780;17.194;2022-12-18T18:22:00;4.20;99.90
34877;DHT22;21086;44.780;17.194;2022-12-18T18:24:29;4.30;99.90
34877;DHT22;21086;44.780;17.194;2022-12-18T18:26:56;4.20;99.90
34877;DHT22;21086;44.780;17.194;2022-12-18T18:29:26;4.30;99.90
34877;DHT22;21086;44.780;17.194;2022-12-18T18:31:56;4.00;99.90
34877;DHT22;21086;44.780;17.194;2022-12-18T18:34:29;3.90;99.90
34877;DHT22;21086;44.780;17.194;2022-12-18T18:36:56;3.70;99.90
34877;DHT22;21086;44.780;17.194;2022-12-18T18:39:23;3.70;99.90
34877;DHT22;21086;44.780;17.194;2022-12-18T18:41:50;4.70;99.90
34877;DHT22;21086;44.780;17.194;2022-12-18T18:44:18;3.70;99.90
34877;DHT22;21086;44.780;17.194;2022-12-18T18:46:53;3.70;99.90
34877;DHT22;21086;44.780;17.194;2022-12-18T18:49:21;3.90;99.90
34877;DHT22;21086;44.780;17.194;2022-12-18T18:51:50;3.80;99.90
34877;DHT22;21086;44.780;17.194;2022-12-18T18:54:17;3.90;99.90
34877;DHT22;21086;44.780;17.194;2022-12-18T18:56:43;3.90;99.90
34877;DHT22;21086;44.780;17.194;2022-12-18T18:59:30;4.10;99.90
34877;DHT22;21086;44.780;17.194;2022-12-18T19:01:58;4.10;99.90
34877;DHT22;21086;44.780;17.194;2022-12-18T19:04:32;3.90;99.90
34877;DHT22;21086;44.780;17.194;2022-12-18T19:06:59;3.90;99.90
34877;DHT22;21086;44.780;17.194;2022-12-18T19:09:26;3.90;99.90
34877;DHT22;21086;44.780;17.194;2022-12-18T19:11:54;3.90;99.90
34877;DHT22;21086;44.780;17.194;2022-12-18T19:14:39;3.80;99.90
34877;DHT22;21086;44.780;17.194;2022-12-18T19:17:06;3.90;99.90
34877;DHT22;21086;44.780;17.194;2022-12-18T19:19:33;3.80;99.90
34877;DHT22;21086;44.780;17.194;2022-12-18T19:22:00;3.80;99.90
34877;DHT22;21086;44.780;17.194;2022-12-18T19:24:27;3.60;99.90
34877;DHT22;21086;44.780;17.194;2022-12-18T19:26:54;3.70;99.90
34877;DHT22;21086;44.780;17.194;2022-12-18T19:29:23;4.70;99.90
34877;DHT22;21086;44.780;17.194;2022-12-18T19:31:50;3.70;99.90